Time;durP1;ratioP1;P1;durP2;ratioP2;P2;SDS_P1;SDS_P2;PMS_P1;PMS_P2;Temp;Humidity;BMP_temperature;BMP_pressure;BME280_temperature;BME280_humidity;BME280_pressure;Samples;Min_cycle;Max_cycle;Signal;HPM_P1;HPM_P2
2022/05/21 00:01:25;;;;;;;4.07;1.60;;;;;;;13.87;96.37;100481.84;5064485;28;20220;-60
2022/05/21 00:03:51;;;;;;;1.83;1.40;;;;;;;13.82;96.50;100496.81;5062814;28;20181;-59
2022/05/21 00:06:17;;;;;;;6.00;1.63;;;;;;;13.79;97.37;100488.41;5051553;28;20624;-59
2022/05/21 00:08:43;;;;;;;3.20;1.57;;;;;;;13.70;95.81;100482.88;5051421;28;20178;-60
2022/05/21 00:11:09;;;;;;;1.67;1.57;;;;;;;13.68;95.34;100502.00;5052740;28;20715;-61
2022/05/21 00:13:34;;;;;;;3.47;1.53;;;;;;;13.63;93.45;100499.72;5066849;28;20288;-60
2022/05/21 00:15:59;;;;;;;2.67;1.73;;;;;;;13.60;93.45;100506.81;5051559;28;20202;-59
2022/05/21 00:18:25;;;;;;;1.50;1.40;;;;;;;13.57;93.08;100502.69;5051609;28;20291;-59
2022/05/21 00:20:50;;;;;;;2.23;1.80;;;;;;;13.58;94.17;100516.41;5047860;28;20228;-59
2022/05/21 00:23:24;;;;;;;2.20;1.30;;;;;;;13.51;95.16;100513.38;5050379;28;20273;-59
2022/05/21 00:25:55;;;;;;;1.53;1.40;;;;;;;13.45;95.85;100518.91;5050037;28;20177;-60
2022/05/21 00:28:21;;;;;;;1.77;1.30;;;;;;;13.41;96.69;100520.84;5050952;28;20189;-58
2022/05/21 00:30:46;;;;;;;1.80;1.50;;;;;;;13.39;97.26;100530.44;5037718;28;20611;-58
2022/05/21 00:33:12;;;;;;;2.70;2.20;;;;;;;13.48;97.19;100531.66;5046130;28;20251;-58
2022/05/21 00:35:37;;;;;;;2.10;1.90;;;;;;;13.33;97.77;100529.00;5066608;28;20177;-58
2022/05/21 00:38:03;;;;;;;2.83;2.10;;;;;;;13.21;96.65;100533.16;5049717;28;20674;-58
2022/05/21 00:40:29;;;;;;;2.30;1.83;;;;;;;13.18;95.21;100540.25;5048480;28;20269;-58
2022/05/21 00:42:54;;;;;;;4.50;2.40;;;;;;;13.13;95.24;100545.69;5063913;28;20200;-59
2022/05/21 00:45:19;;;;;;;3.00;2.27;;;;;;;12.97;95.34;100550.09;5067085;28;20181;-59
2022/05/21 00:47:45;;;;;;;2.30;2.10;;;;;;;12.96;95.42;100545.84;5050882;28;20711;-59
2022/05/21 00:50:12;;;;;;;2.43;2.20;;;;;;;12.98;94.78;100544.81;5027908;28;20208;-58
2022/05/21 00:52:39;;;;;;;2.07;1.87;;;;;;;12.94;94.75;100555.41;5048692;28;20255;-59
2022/05/21 00:55:12;;;;;;;4.70;2.20;;;;;;;12.96;95.19;100556.16;5049398;28;20205;-59
2022/05/21 01:00:53;;;;;;;2.90;2.70;;;;;;;12.78;96.58;100558.88;5047627;28;20313;-58
2022/05/21 01:03:18;;;;;;;4.03;3.00;;;;;;;12.66;93.29;100555.22;5066607;28;20177;-58
2022/05/21 01:05:48;;;;;;;4.03;3.73;;;;;;;12.69;92.98;100562.81;5049452;28;20173;-61
2022/05/21 01:08:14;;;;;;;5.30;3.50;;;;;;;12.69;92.72;100567.97;5049520;28;20279;-59
2022/05/21 01:10:46;;;;;;;3.83;3.30;;;;;;;12.67;93.16;100567.22;5045968;28;20232;-60
2022/05/21 01:13:18;;;;;;;5.03;3.00;;;;;;;12.61;92.82;100567.56;5034724;28;20189;-59
2022/05/21 01:15:47;;;;;;;3.27;2.97;;;;;;;12.58;93.73;100571.13;5049350;28;20192;-59
2022/05/21 01:18:12;;;;;;;4.43;3.33;;;;;;;12.65;93.88;100566.50;5065847;28;20248;-58
2022/05/21 01:20:41;;;;;;;3.63;3.23;;;;;;;12.58;94.46;100570.31;5046853;28;20722;-59
2022/05/21 01:23:07;;;;;;;3.27;2.97;;;;;;;12.55;94.55;100576.47;5053633;28;20280;-59
2022/05/21 01:25:35;;;;;;;3.33;3.10;;;;;;;12.61;95.02;100579.63;5070153;28;20711;-58
2022/05/21 01:28:03;;;;;;;3.43;3.23;;;;;;;12.54;95.06;100579.97;5053051;28;20637;-58
2022/05/21 01:30:44;;;;;;;3.60;3.30;;;;;;;12.44;94.96;100586.56;5062711;28;20234;-58
2022/05/21 01:33:12;;;;;;;4.60;3.50;;;;;;;12.37;95.83;100586.06;5070219;28;20204;-58
2022/05/21 01:35:39;;;;;;;4.37;3.57;;;;;;;12.31;97.16;100588.97;5053235;28;20298;-59
2022/05/21 01:38:05;;;;;;;3.50;3.20;;;;;;;12.40;97.92;100591.06;5054216;28;20192;-60
2022/05/21 01:40:30;;;;;;;4.10;3.40;;;;;;;12.38;98.50;100592.06;5038825;28;20288;-60
2022/05/21 01:45:40;;;;;;;3.93;3.53;;;;;;;12.31;99.36;100599.28;5034713;28;20275;-60
2022/05/21 01:48:06;;;;;;;3.60;3.30;;;;;;;12.27;100.00;100593.44;5033960;28;20249;-60
2022/05/21 01:50:33;;;;;;;3.70;3.40;;;;;;;12.26;100.00;100594.38;5030499;28;20228;-59
2022/05/21 01:52:58;;;;;;;3.90;3.30;;;;;;;12.24;100.00;100609.09;5052366;28;20173;-59
2022/05/21 01:55:24;;;;;;;4.37;3.77;;;;;;;12.21;100.00;100598.94;5054303;28;20668;-59
2022/05/21 01:57:50;;;;;;;7.43;3.53;;;;;;;12.23;100.00;100601.44;5068681;28;20184;-60
2022/05/21 02:00:16;;;;;;;4.20;3.70;;;;;;;12.10;100.00;100602.09;5044333;28;20565;-58
2022/05/21 02:02:42;;;;;;;4.20;3.77;;;;;;;12.04;100.00;100596.44;5067588;28;20265;-59
2022/05/21 02:05:08;;;;;;;4.67;4.27;;;;;;;12.10;100.00;100606.41;5054234;28;20544;-59
2022/05/21 02:07:34;;;;;;;5.83;4.53;;;;;;;11.94;100.00;100609.78;5051958;28;20252;-58
2022/05/21 02:10:00;;;;;;;4.50;4.07;;;;;;;12.06;100.00;100612.66;5054013;28;20300;-60
2022/05/21 02:12:27;;;;;;;7.43;4.90;;;;;;;11.94;100.00;100603.78;5059206;28;20228;-59
2022/05/21 02:14:54;;;;;;;5.70;5.20;;;;;;;11.93;100.00;100607.25;5053903;28;20221;-59
2022/05/21 02:17:20;;;;;;;5.97;4.30;;;;;;;11.90;100.00;100604.88;5051888;28;20251;-58
2022/05/21 02:19:46;;;;;;;6.30;5.30;;;;;;;11.83;100.00;100606.91;5053764;28;20953;-59
2022/05/21 02:22:11;;;;;;;8.27;5.33;;;;;;;11.84;100.00;100618.88;5042219;28;20317;-59
2022/05/21 02:24:37;;;;;;;5.67;5.17;;;;;;;11.72;100.00;100615.22;5053849;28;20180;-59
2022/05/21 02:27:03;;;;;;;5.33;4.67;;;;;;;11.67;100.00;100617.19;5051778;28;20189;-59
2022/05/21 02:29:29;;;;;;;5.83;5.23;;;;;;;11.71;100.00;100617.84;5053395;28;20180;-59
2022/05/21 02:31:54;;;;;;;6.53;5.40;;;;;;;11.62;100.00;100612.28;5056959;28;20240;-59
2022/05/21 02:34:19;;;;;;;5.53;5.03;;;;;;;11.55;100.00;100615.25;5054672;28;20655;-60
2022/05/21 02:39:31;;;;;;;6.20;5.03;;;;;;;11.44;100.00;100629.47;5053180;28;20177;-59
2022/05/21 02:41:58;;;;;;;6.20;5.70;;;;;;;11.40;100.00;100627.13;5026425;28;20633;-59
2022/05/21 02:44:24;;;;;;;6.47;5.87;;;;;;;11.37;100.00;100628.09;5031679;28;20629;-58
2022/05/21 02:46:49;;;;;;;8.27;6.87;;;;;;;11.40;100.00;100627.13;5032927;28;20191;-59
2022/05/21 02:49:15;;;;;;;7.67;6.37;;;;;;;11.38;100.00;100634.09;5029376;28;20562;-59
2022/05/21 02:51:40;;;;;;;6.67;6.17;;;;;;;11.32;100.00;100627.50;5062941;28;20237;-59
2022/05/21 02:54:06;;;;;;;6.97;6.20;;;;;;;11.24;100.00;100629.63;5058842;28;20294;-58
2022/05/21 02:56:32;;;;;;;6.60;6.00;;;;;;;11.22;100.00;100626.28;5051546;28;20173;-59
2022/05/21 02:58:58;;;;;;;6.13;5.63;;;;;;;11.20;100.00;100625.53;5051995;28;20175;-58
2022/05/21 03:01:23;;;;;;;9.30;6.93;;;;;;;11.21;100.00;100624.63;5020948;28;20794;-58
2022/05/21 03:03:48;;;;;;;7.10;6.30;;;;;;;11.13;100.00;100619.84;5032414;28;20607;-58
2022/05/21 03:06:13;;;;;;;6.27;5.63;;;;;;;11.20;100.00;100630.69;5032509;28;20186;-59
2022/05/21 03:11:23;;;;;;;6.43;5.83;;;;;;;11.06;100.00;100623.63;5044327;28;20328;-59
2022/05/21 03:13:48;;;;;;;6.50;5.90;;;;;;;11.01;100.00;100620.44;5057577;28;20695;-59
2022/05/21 03:16:13;;;;;;;6.27;5.67;;;;;;;10.92;100.00;100625.13;5050830;28;20753;-58
2022/05/21 03:18:39;;;;;;;6.03;5.47;;;;;;;10.91;100.00;100623.44;5058830;28;20181;-57
2022/05/21 03:21:04;;;;;;;5.93;5.33;;;;;;;10.94;100.00;100619.88;5050425;28;20307;-61
2022/05/21 03:23:30;;;;;;;6.20;5.50;;;;;;;10.90;100.00;100623.53;5059931;28;20258;-59
2022/05/21 03:25:55;;;;;;;6.37;5.57;;;;;;;10.89;100.00;100625.28;5052549;28;20174;-59
2022/05/21 03:28:21;;;;;;;5.87;4.57;;;;;;;10.84;100.00;100624.66;5052413;28;20220;-58
2022/05/21 03:30:46;;;;;;;5.47;4.83;;;;;;;10.82;100.00;100622.16;5021270;28;20217;-58
2022/05/21 03:33:12;;;;;;;6.33;4.93;;;;;;;10.84;100.00;100622.09;5051362;28;20198;-58
2022/05/21 03:35:37;;;;;;;7.87;5.50;;;;;;;10.78;100.00;100633.50;5050391;28;20169;-59
2022/05/21 03:38:04;;;;;;;5.27;4.77;;;;;;;10.85;100.00;100626.31;5052068;28;20180;-58
2022/05/21 03:40:31;;;;;;;6.80;5.27;;;;;;;10.88;100.00;100628.75;5043965;28;20220;-58
2022/05/21 03:42:57;;;;;;;5.43;4.93;;;;;;;10.90;100.00;100634.66;5050782;28;20609;-58
2022/05/21 03:45:24;;;;;;;5.37;4.60;;;;;;;10.82;100.00;100637.59;5050144;28;20268;-58
2022/05/21 03:47:50;;;;;;;6.20;4.37;;;;;;;10.86;100.00;100632.31;5049685;28;20634;-58
2022/05/21 03:50:21;;;;;;;4.77;4.33;;;;;;;10.89;100.00;100640.72;5045046;28;20173;-59
2022/05/21 03:52:47;;;;;;;5.23;4.73;;;;;;;10.93;100.00;100636.25;5078901;28;20177;-59
2022/05/21 03:55:13;;;;;;;9.77;4.60;;;;;;;10.92;100.00;100644.88;5051966;28;20216;-58
2022/05/21 03:57:38;;;;;;;4.90;4.10;;;;;;;10.94;100.00;100636.19;5050102;28;20184;-59
2022/05/21 04:00:11;;;;;;;6.53;3.97;;;;;;;10.92;100.00;100648.28;5040426;28;20177;-58
2022/05/21 04:02:37;;;;;;;6.60;4.20;;;;;;;11.00;100.00;100645.34;5065812;28;20320;-59
2022/05/21 04:05:04;;;;;;;4.43;3.83;;;;;;;11.05;100.00;100651.13;5051688;28;20267;-59
2022/05/21 04:07:30;;;;;;;5.33;3.80;;;;;;;11.01;100.00;100646.19;5049843;28;20660;-59
2022/05/21 04:09:55;;;;;;;4.53;3.33;;;;;;;11.18;100.00;100658.25;5051794;28;20173;-59
2022/05/21 04:12:20;;;;;;;3.47;3.10;;;;;;;11.19;100.00;100663.34;5057029;28;20227;-58
2022/05/21 04:14:45;;;;;;;3.87;3.43;;;;;;;11.17;100.00;100666.88;5051785;28;20246;-59
2022/05/21 04:17:13;;;;;;;3.50;3.20;;;;;;;11.28;100.00;100655.16;5051070;28;20223;-59
2022/05/21 04:19:39;;;;;;;3.27;2.70;;;;;;;11.28;100.00;100665.44;5051187;28;20169;-58
2022/05/21 04:22:05;;;;;;;4.93;2.60;;;;;;;11.39;100.00;100656.38;5043174;28;20240;-59
2022/05/21 04:24:30;;;;;;;6.10;2.60;;;;;;;11.45;100.00;100654.31;5051963;28;20256;-59
2022/05/21 04:26:56;;;;;;;3.57;2.43;;;;;;;11.49;100.00;100657.59;5050885;28;20626;-59
2022/05/21 04:29:21;;;;;;;4.30;2.80;;;;;;;11.62;100.00;100665.53;5051514;28;20521;-59
2022/05/21 04:31:46;;;;;;;3.47;2.47;;;;;;;11.71;100.00;100666.81;5054223;28;20272;-59
2022/05/21 04:34:12;;;;;;;2.43;2.23;;;;;;;11.76;100.00;100667.44;5053221;28;20203;-60
2022/05/21 04:36:38;;;;;;;2.80;2.20;;;;;;;11.63;100.00;100668.06;5049661;28;20534;-59
2022/05/21 04:39:04;;;;;;;3.40;2.73;;;;;;;11.73;100.00;100672.72;5051364;28;20168;-59
2022/05/21 04:41:30;;;;;;;3.63;2.33;;;;;;;11.87;100.00;100669.44;5027461;28;20272;-60
2022/05/21 04:43:55;;;;;;;2.70;2.50;;;;;;;11.94;100.00;100674.25;5028410;28;20199;-60
2022/05/21 04:46:24;;;;;;;4.00;2.10;;;;;;;12.00;100.00;100675.69;5030686;28;20186;-61
2022/05/21 04:48:50;;;;;;;3.90;2.13;;;;;;;12.00;100.00;100669.72;5046631;28;20260;-59
2022/05/21 04:51:16;;;;;;;3.00;1.73;;;;;;;12.24;100.00;100677.91;5049747;28;20319;-59
2022/05/21 04:53:41;;;;;;;2.03;1.90;;;;;;;12.37;100.00;100683.28;5049758;28;20189;-58
2022/05/21 04:56:08;;;;;;;2.20;2.00;;;;;;;12.48;100.00;100677.50;5068155;28;20173;-59
2022/05/21 04:58:34;;;;;;;2.07;1.73;;;;;;;12.50;100.00;100680.84;5054023;28;20671;-59
2022/05/21 05:01:01;;;;;;;1.73;1.63;;;;;;;12.43;100.00;100682.94;5035257;28;20261;-60
2022/05/21 05:03:26;;;;;;;3.20;1.90;;;;;;;12.46;100.00;100687.94;5043330;28;20625;-59
2022/05/21 05:05:52;;;;;;;2.07;1.60;;;;;;;12.71;99.36;100682.31;5036523;28;20221;-60
2022/05/21 05:08:19;;;;;;;1.47;1.37;;;;;;;12.75;98.40;100683.78;5035759;28;20206;-60
2022/05/21 05:10:46;;;;;;;1.70;1.43;;;;;;;13.02;97.22;100693.53;5035201;28;20765;-61
2022/05/21 05:13:12;;;;;;;3.63;2.13;;;;;;;13.02;95.73;100695.25;5054328;28;20201;-60
2022/05/21 05:15:38;;;;;;;2.80;2.00;;;;;;;13.07;95.75;100690.66;5034253;28;20245;-60
2022/05/21 05:18:06;;;;;;;5.73;1.87;;;;;;;13.31;95.82;100688.47;5049362;28;20561;-60
2022/05/21 05:20:32;;;;;;;6.20;2.07;;;;;;;13.11;94.76;100681.00;5050882;28;20236;-60
2022/05/21 05:22:58;;;;;;;2.97;2.00;;;;;;;13.23;94.33;100686.34;5078639;28;20174;-60
2022/05/21 05:25:24;;;;;;;2.10;1.90;;;;;;;13.24;95.21;100685.38;5053277;28;20173;-60
2022/05/21 05:27:50;;;;;;;2.70;1.80;;;;;;;13.46;93.67;100691.97;5052675;28;20181;-60
2022/05/21 05:30:18;;;;;;;5.00;1.90;;;;;;;13.62;92.27;100688.47;5044346;28;20536;-61
2022/05/21 05:32:43;;;;;;;3.80;1.70;;;;;;;13.70;92.27;100689.69;5069898;28;20173;-59
2022/05/21 05:35:10;;;;;;;3.10;1.97;;;;;;;13.79;90.26;100692.69;5054178;28;20248;-59
2022/05/21 05:37:35;;;;;;;2.00;1.50;;;;;;;13.99;87.90;100688.91;5053468;28;20660;-60
2022/05/21 05:40:01;;;;;;;2.47;1.80;;;;;;;14.13;87.50;100683.75;5054242;28;20173;-60
2022/05/21 05:42:26;;;;;;;2.57;1.67;;;;;;;14.07;87.31;100684.13;5054551;28;20711;-60
2022/05/21 05:44:51;;;;;;;2.90;1.60;;;;;;;14.13;84.81;100678.59;5068754;28;20193;-60
2022/05/21 05:47:17;;;;;;;3.90;1.80;;;;;;;14.13;84.95;100690.69;5069172;28;20188;-60
2022/05/21 05:49:42;;;;;;;3.37;1.50;;;;;;;14.11;82.06;100693.34;5054166;28;20178;-59
2022/05/21 05:52:11;;;;;;;3.17;1.23;;;;;;;14.43;80.30;100694.94;5061869;28;20713;-60
2022/05/21 05:54:37;;;;;;;2.97;1.40;;;;;;;14.64;79.76;100693.59;5054131;28;20254;-60
2022/05/21 05:57:03;;;;;;;2.53;1.30;;;;;;;14.92;78.54;100693.66;5053715;28;20185;-60
2022/05/21 06:04:56;;;;;;;1.23;1.00;;;;;;;15.35;74.13;100693.47;5034007;28;20243;-60
2022/05/21 06:07:21;;;;;;;2.57;1.20;;;;;;;15.41;73.37;100700.03;5032127;28;20178;-58
2022/05/21 06:09:48;;;;;;;1.87;1.20;;;;;;;15.41;73.03;100693.09;5033841;28;20582;-58
2022/05/21 06:12:14;;;;;;;2.23;1.40;;;;;;;15.42;73.33;100697.34;5055918;28;20727;-58
2022/05/21 06:14:41;;;;;;;2.43;1.57;;;;;;;15.62;72.46;100695.19;5050523;28;20310;-59
2022/05/21 06:17:07;;;;;;;3.03;1.77;;;;;;;15.35;70.92;100695.25;5053121;28;20225;-58
2022/05/21 06:19:33;;;;;;;4.97;1.30;;;;;;;15.67;71.35;100700.91;5068591;28;20547;-60
2022/05/21 06:21:59;;;;;;;1.47;1.33;;;;;;;15.61;70.69;100701.31;5057868;28;20228;-59
2022/05/21 06:24:24;;;;;;;3.73;1.17;;;;;;;15.92;68.24;100701.91;5052049;28;20189;-59
2022/05/21 06:26:50;;;;;;;2.27;1.50;;;;;;;16.06;67.54;100700.94;5053020;28;20246;-59
2022/05/21 06:29:16;;;;;;;3.87;1.57;;;;;;;15.90;68.93;100703.75;5053409;28;20259;-59
2022/05/21 06:31:41;;;;;;;2.43;1.30;;;;;;;16.45;66.82;100705.16;5031133;28;20284;-58
2022/05/21 06:34:07;;;;;;;3.13;1.60;;;;;;;17.11;64.16;100706.66;5048663;28;20190;-58
2022/05/21 06:36:32;;;;;;;2.37;1.10;;;;;;;18.18;59.78;100696.16;5041832;28;20360;-58
2022/05/21 06:38:57;;;;;;;2.57;0.90;;;;;;;19.92;51.42;100698.75;5040782;28;20190;-59
2022/05/21 06:41:23;;;;;;;4.50;1.10;;;;;;;19.94;50.15;100697.69;5016426;28;20226;-59
2022/05/21 06:43:48;;;;;;;3.43;1.50;;;;;;;20.89;48.41;100703.50;5032934;28;20212;-59
2022/05/21 06:46:13;;;;;;;2.83;1.20;;;;;;;20.58;47.86;100715.81;5049534;28;20180;-59
2022/05/21 06:48:39;;;;;;;3.37;1.10;;;;;;;20.76;47.70;100705.53;5053273;28;20191;-59
2022/05/21 06:51:07;;;;;;;2.13;0.90;;;;;;;21.99;44.52;100709.31;5051002;28;20235;-58
2022/05/21 06:53:34;;;;;;;4.20;1.33;;;;;;;23.07;42.02;100711.34;5059503;28;20193;-60
2022/05/21 06:55:59;;;;;;;3.30;1.33;;;;;;;22.92;41.45;100713.63;5052375;28;20532;-60
2022/05/21 06:58:25;;;;;;;2.07;0.90;;;;;;;24.61;38.25;100708.13;5026437;28;20186;-59
2022/05/21 07:00:50;;;;;;;1.65;0.80;;;;;;;23.90;39.92;100704.84;5018059;28;20294;-60
2022/05/21 07:03:15;;;;;;;2.38;0.93;;;;;;;24.86;37.88;100699.47;5032399;28;20245;-60
2022/05/21 07:08:28;;;;;;;3.15;1.08;;;;;;;24.52;38.23;100713.53;5012753;28;20302;-59
2022/05/21 07:10:53;;;;;;;8.15;1.23;;;;;;;23.63;38.79;100709.31;5016453;28;20311;-60
2022/05/21 07:13:22;;;;;;;1.70;0.70;;;;;;;23.64;38.11;100710.13;5036721;28;20646;-59
2022/05/21 07:15:49;;;;;;;2.95;1.02;;;;;;;22.97;40.09;100719.28;5021905;28;20254;-59
2022/05/21 07:18:19;;;;;;;2.55;1.10;;;;;;;23.20;40.32;100716.22;5030611;28;20276;-59
2022/05/21 07:20:45;;;;;;;2.38;1.17;;;;;;;23.75;38.25;100709.88;5021753;28;20237;-59
2022/05/21 07:23:11;;;;;;;1.40;0.77;;;;;;;24.13;37.78;100705.16;5031696;28;20186;-60
2022/05/21 07:25:36;;;;;;;2.38;1.20;;;;;;;24.63;36.96;100706.16;5017331;28;20289;-59
2022/05/21 07:28:02;;;;;;;1.60;0.77;;;;;;;25.32;35.71;100712.97;5011688;28;20209;-60
2022/05/21 07:30:29;;;;;;;1.95;1.13;;;;;;;25.05;35.39;100714.13;4988029;28;20316;-59
2022/05/21 07:32:55;;;;;;;2.78;1.10;;;;;;;24.25;36.69;100710.13;5035402;28;20177;-59
2022/05/21 07:35:22;;;;;;;1.75;1.02;;;;;;;24.90;37.29;100701.63;5051140;28;20205;-59
2022/05/21 07:37:48;;;;;;;2.63;1.10;;;;;;;23.55;37.97;100719.75;5043631;28;20624;-60
2022/05/21 07:40:16;;;;;;;2.03;1.02;;;;;;;23.88;37.96;100714.72;5039487;28;20201;-66
2022/05/21 07:42:42;;;;;;;4.20;1.10;;;;;;;24.10;37.04;100716.00;5047060;28;20233;-66
2022/05/21 07:45:09;;;;;;;3.60;0.98;;;;;;;22.84;39.94;100716.19;5014299;28;20186;-70
2022/05/21 07:47:35;;;;;;;3.50;1.05;;;;;;;23.90;38.82;100704.84;5015745;28;20198;-71
2022/05/21 07:50:01;;;;;;;1.80;0.95;;;;;;;24.84;36.51;100704.91;5032418;28;20538;-62
2022/05/21 07:52:28;;;;;;;2.97;0.80;;;;;;;25.28;35.63;100707.22;5040005;28;20237;-67
2022/05/21 07:54:54;;;;;;;2.05;1.23;;;;;;;25.02;35.74;100709.19;5051073;28;20279;-74
2022/05/21 07:57:19;;;;;;;2.35;1.10;;;;;;;24.12;37.17;100708.78;5034024;28;20269;-73
2022/05/21 07:59:45;;;;;;;2.38;1.00;;;;;;;23.60;38.57;100719.31;5031539;28;20617;-71
2022/05/21 08:02:12;;;;;;;3.53;1.20;;;;;;;21.66;42.36;100714.06;5042200;28;21489;-70
2022/05/21 08:04:38;;;;;;;1.47;1.00;;;;;;;22.14;42.59;100707.03;5048366;28;20215;-72
2022/05/21 08:07:04;;;;;;;2.63;1.17;;;;;;;24.53;37.64;100709.91;5066030;28;20182;-71
2022/05/21 08:09:29;;;;;;;2.53;1.00;;;;;;;25.61;35.74;100707.22;5061650;28;20299;-71
2022/05/21 08:11:54;;;;;;;3.83;0.93;;;;;;;24.81;36.25;100708.69;5049439;28;20657;-70
2022/05/21 08:14:20;;;;;;;3.45;1.20;;;;;;;25.20;36.10;100706.41;5035603;28;20222;-71
2022/05/21 08:16:45;;;;;;;4.15;1.10;;;;;;;25.40;35.32;100701.63;5043621;28;20221;-74
2022/05/21 08:19:12;;;;;;;1.77;0.90;;;;;;;26.48;33.96;100696.84;5046308;28;20277;-73
2022/05/21 08:21:38;;;;;;;2.40;0.75;;;;;;;26.71;33.18;100699.53;5062285;28;20238;-75
2022/05/21 08:26:56;;;;;;;3.13;1.38;;;;;;;25.74;32.90;100698.78;5037796;28;20219;-73
2022/05/21 08:29:33;;;;;;;2.47;0.77;;;;;;;24.48;34.45;100699.88;5049690;28;20586;-70
2022/05/21 08:32:00;;;;;;;2.58;1.10;;;;;;;23.49;36.30;100696.75;5048946;28;20232;-68
2022/05/21 08:34:26;;;;;;;7.47;1.52;;;;;;;22.72;37.83;100702.47;5036179;28;20218;-70
2022/05/21 08:36:53;;;;;;;2.13;0.82;;;;;;;22.82;38.71;100687.50;5054843;28;20177;-70
2022/05/21 08:39:20;;;;;;;2.27;1.10;;;;;;;22.47;39.21;100702.19;5066755;28;20561;-70
2022/05/21 08:41:48;;;;;;;2.53;1.20;;;;;;;22.21;39.69;100700.22;5044123;28;20368;-69
2022/05/21 08:44:18;;;;;;;7.17;1.23;;;;;;;22.50;38.27;100695.84;5045387;28;20596;-69
2022/05/21 08:47:22;;;;;;;4.87;1.57;;;;;;;22.56;38.34;100698.72;5072172;28;20189;-70
2022/05/21 08:50:02;;;;;;;3.73;1.37;;;;;;;22.70;39.70;100701.81;4989805;28;20293;-72
2022/05/21 08:52:30;;;;;;;8.47;2.10;;;;;;;23.49;37.75;100688.88;4962154;28;20227;-71
2022/05/21 08:54:58;;;;;;;2.10;1.03;;;;;;;23.17;38.72;100695.50;4972059;28;20366;-70
2022/05/21 08:57:51;;;;;;;2.57;1.20;;;;;;;22.76;39.22;100697.75;4986649;28;20195;-73
2022/05/21 09:00:23;;;;;;;3.80;1.43;;;;;;;22.12;40.20;100700.31;4978689;28;20228;-70
2022/05/21 09:02:50;;;;;;;3.93;1.30;;;;;;;21.43;41.31;100697.81;4974585;28;20207;-71
2022/05/21 09:05:18;;;;;;;4.13;1.20;;;;;;;21.62;41.65;100694.41;4965684;28;20207;-60
2022/05/21 09:08:03;;;;;;;3.73;1.10;;;;;;;21.06;41.89;100696.75;4986116;28;20568;-60
2022/05/21 09:10:48;;;;;;;2.47;1.00;;;;;;;21.20;42.49;100699.91;4961582;28;20238;-60
2022/05/21 09:13:34;;;;;;;3.37;1.17;;;;;;;21.12;43.62;100696.22;4971524;28;20608;-60
2022/05/21 09:18:45;;;;;;;4.20;1.20;;;;;;;20.63;43.25;100695.31;4989493;28;20250;-61
2022/05/21 09:21:18;;;;;;;2.00;0.90;;;;;;;20.44;43.42;100691.69;4978589;28;20254;-59
2022/05/21 09:23:55;;;;;;;4.10;1.60;;;;;;;20.54;44.32;100688.25;5004979;28;20312;-60
2022/05/21 09:26:24;;;;;;;2.77;1.23;;;;;;;20.31;43.66;100688.50;5029514;28;20185;-60
2022/05/21 09:28:51;;;;;;;4.37;1.50;;;;;;;21.38;43.38;100692.19;5055762;28;20323;-61
2022/05/21 09:31:31;;;;;;;1.80;1.03;;;;;;;21.45;42.05;100695.91;5037872;28;20299;-60
2022/05/21 09:34:23;;;;;;;2.13;1.07;;;;;;;21.47;41.08;100698.38;5058468;28;20209;-60
2022/05/21 09:36:48;;;;;;;3.53;1.10;;;;;;;22.45;39.72;100683.19;5050301;28;20728;-59
2022/05/21 09:39:27;;;;;;;3.37;1.13;;;;;;;21.71;40.97;100690.09;5049385;28;20264;-59
2022/05/21 09:45:27;;;;;;;3.53;1.30;;;;;;;20.11;45.12;100693.63;5054861;28;20192;-61
2022/05/21 09:48:15;;;;;;;3.57;1.43;;;;;;;20.30;45.82;100697.28;5054408;28;20668;-60
2022/05/21 09:50:52;;;;;;;4.87;1.10;;;;;;;19.95;45.90;100703.75;5064371;28;20233;-60
2022/05/21 09:53:40;;;;;;;4.13;1.13;;;;;;;20.46;43.42;100702.00;5063804;28;20222;-61
2022/05/21 09:56:05;;;;;;;2.67;1.10;;;;;;;20.41;44.50;100704.19;5051821;28;20281;-61
2022/05/21 09:58:37;;;;;;;1.90;1.40;;;;;;;22.23;40.94;100703.53;5034520;28;20260;-61
2022/05/21 10:01:05;;;;;;;1.80;1.03;;;;;;;25.23;35.45;100708.69;5025464;28;20245;-60
2022/05/21 10:03:45;;;;;;;3.27;1.23;;;;;;;24.27;35.85;100714.25;5060028;28;20204;-59
2022/05/21 10:06:33;;;;;;;2.63;1.07;;;;;;;25.76;35.87;100711.78;5071230;28;20187;-60
2022/05/21 10:12:04;;;;;;;3.30;1.27;;;;;;;26.02;33.03;100710.72;5072166;28;20763;-61
2022/05/21 10:14:46;;;;;;;1.52;0.85;;;;;;;25.97;32.42;100700.69;5048567;28;20212;-60
2022/05/21 10:17:28;;;;;;;1.27;0.80;;;;;;;25.67;33.69;100707.53;5067410;28;20232;-59
2022/05/21 10:20:03;;;;;;;1.48;1.00;;;;;;;26.73;32.49;100710.69;5068967;28;20189;-60
2022/05/21 10:22:48;;;;;;;1.95;1.20;;;;;;;26.54;31.88;100712.78;5055236;28;20217;-60
2022/05/21 10:25:20;;;;;;;2.63;1.15;;;;;;;23.97;35.05;100720.88;5052704;28;20276;-59
2022/05/21 10:28:10;;;;;;;4.10;1.30;;;;;;;24.50;33.73;100716.31;5054005;28;20182;-62
2022/05/21 10:31:00;;;;;;;3.72;1.25;;;;;;;24.95;33.93;100711.66;5038378;28;20228;-60
2022/05/21 10:33:44;;;;;;;2.13;0.90;;;;;;;25.42;32.50;100711.00;5071318;28;20196;-61
2022/05/21 10:36:15;;;;;;;4.80;1.17;;;;;;;26.24;32.50;100709.97;5059672;28;20197;-59
2022/05/21 10:39:05;;;;;;;2.35;1.10;;;;;;;26.05;32.86;100708.56;5043513;28;20204;-60
2022/05/21 10:41:45;;;;;;;2.45;1.00;;;;;;;26.05;32.83;100711.19;5050610;28;20237;-61
2022/05/21 10:44:30;;;;;;;4.50;1.30;;;;;;;25.93;32.21;100705.47;5046466;28;20203;-60
2022/05/21 10:47:03;;;;;;;2.13;0.90;;;;;;;23.85;34.27;100702.72;5061849;28;20314;-61
2022/05/21 10:49:46;;;;;;;4.05;1.02;;;;;;;23.29;33.81;100696.94;5044969;28;20555;-61
2022/05/21 10:52:26;;;;;;;2.67;1.20;;;;;;;22.84;37.32;100701.28;5054132;28;20239;-61
2022/05/21 10:55:17;;;;;;;2.53;1.00;;;;;;;22.86;36.72;100696.72;5048802;28;20631;-60
2022/05/21 10:57:48;;;;;;;3.67;1.37;;;;;;;23.17;34.69;100685.88;5045849;28;20277;-62
2022/05/21 11:00:16;;;;;;;3.37;1.20;;;;;;;23.40;36.97;100684.56;5023430;28;21092;-62
2022/05/21 11:03:09;;;;;;;4.67;1.20;;;;;;;22.81;35.51;100698.97;5044274;28;20186;-60
2022/05/21 11:06:06;;;;;;;2.03;1.30;;;;;;;22.03;36.18;100686.25;5045657;28;20188;-59
2022/05/21 11:08:54;;;;;;;1.70;1.07;;;;;;;22.14;37.55;100688.69;4966158;28;20217;-60
2022/05/21 11:11:53;;;;;;;2.27;0.93;;;;;;;21.43;37.51;100688.19;5047840;28;20264;-60
2022/05/21 11:14:33;;;;;;;2.20;1.10;;;;;;;21.08;39.16;100676.50;5058246;28;20315;-63
2022/05/21 11:17:21;;;;;;;3.43;1.23;;;;;;;21.15;39.91;100684.66;5040631;28;20273;-61
2022/05/21 11:19:49;;;;;;;3.40;1.30;;;;;;;21.45;39.06;100691.47;5071504;28;20180;-61
2022/05/21 11:22:39;;;;;;;2.37;1.30;;;;;;;21.69;40.13;100684.16;5077675;28;20219;-60
2022/05/21 11:25:28;;;;;;;1.93;0.90;;;;;;;21.90;36.63;100674.31;5059837;28;20177;-61
2022/05/21 11:28:16;;;;;;;2.00;1.00;;;;;;;21.85;37.18;100670.47;5063508;28;20221;-60
2022/05/21 11:30:41;;;;;;;1.87;1.00;;;;;;;21.56;37.73;100674.84;5014017;28;20225;-61
2022/05/21 11:39:10;;;;;;;3.03;1.33;;;;;;;21.29;38.32;100668.50;5043161;28;20290;-61
2022/05/21 11:41:54;;;;;;;2.00;1.00;;;;;;;21.50;38.44;100670.13;5053723;28;20281;-61
2022/05/21 11:47:05;;;;;;;4.03;0.87;;;;;;;21.35;35.34;100672.38;5047860;28;20220;-62
2022/05/21 11:49:53;;;;;;;3.10;0.60;;;;;;;21.36;37.52;100684.50;5042463;28;20193;-60
2022/05/21 11:52:27;;;;;;;2.20;1.03;;;;;;;21.49;37.79;100673.72;5052622;28;20309;-59
2022/05/21 11:54:52;;;;;;;2.20;0.90;;;;;;;21.89;36.93;100671.84;5048242;28;20695;-62
2022/05/21 11:57:35;;;;;;;2.30;1.07;;;;;;;21.49;36.64;100670.28;5042359;28;20260;-62
2022/05/21 12:00:03;;;;;;;2.60;1.10;;;;;;;21.48;37.76;100666.00;5045381;28;20288;-60
2022/05/21 12:02:34;;;;;;;2.27;1.00;;;;;;;21.68;37.68;100657.19;5056480;28;20583;-59
2022/05/21 12:05:11;;;;;;;2.63;0.90;;;;;;;22.19;37.08;100657.66;5069403;28;20176;-59
2022/05/21 12:07:46;;;;;;;1.63;1.00;;;;;;;22.33;35.85;100661.56;5060464;28;20189;-60
2022/05/21 12:10:27;;;;;;;2.07;0.90;;;;;;;21.99;36.83;100669.19;5045205;28;20259;-59
2022/05/21 12:13:13;;;;;;;2.87;1.10;;;;;;;21.65;37.82;100661.88;5065821;28;20172;-59